PWSweather.com
Personal Weather Stations
Station Observations
RIORANCHO
Corrales Heights, Rio Rancho, NM 87124

Corrales HeightsRio Rancho, NM 87124

Lat: 35.241928, Lon: -106.647095

Elevation: 5297

Station Type: Davis Vantage Pro 2 Plus

http://www.weatherriorancho.com

High Low Average
Temperature 62.4°F16.9°C 33.9°F1.1°C 47.9°F8.8°C
Dew Point 24.4°F-4.2°C 16.2°F-8.8°C 19.7°F-6.8°C
Winds 4.6 mph 7.4 kmh Calm Calm 1.0 mph ESE1.6 kmh ESE
Wind Gusts 10.4 mph16.7 kmh -- 2.0 mph3.2 kmh
Humidity 53% 19% 34%
Pressure 30.23 in1023.7 mb 30.04 in1017.3 mb -
Precipitation 0.00 in0.0 mm - -
Hour Temp Dew Point Humidity Winds Wind Gusts Pressure Precip Precip Rate Daily Precip Total
12:00 AM 51.2°F10.7°C 24.5°F-4.2°C 35% Calm Calm -- 30.02 in1016.6 mb - 0.00 in0.0 mm 0.00 in0.0 mm
12:10 AM 50.7°F10.4°C 24.7°F-4.1°C 36% Calm Calm -- 30.02 in1016.6 mb - 0.00 in0.0 mm 0.00 in0.0 mm
12:20 AM 49.9°F9.9°C 24.0°F-4.4°C 36% Calm Calm -- 30.03 in1016.9 mb - 0.00 in0.0 mm 0.00 in0.0 mm
12:30 AM 48.0°F8.9°C 22.3°F-5.4°C 36% Calm Calm -- 30.03 in1016.9 mb - 0.00 in0.0 mm 0.00 in0.0 mm
12:40 AM 46.3°F7.9°C 20.7°F-6.3°C 36% 2.3 mph NE3.7 kmh NE 6.9 mph11.1 kmh 30.03 in1016.9 mb - 0.00 in0.0 mm 0.00 in0.0 mm
12:50 AM 45.6°F7.6°C 20.8°F-6.2°C 37% 2.3 mph NNE3.7 kmh NNE 6.9 mph11.1 kmh 30.03 in1016.9 mb - 0.00 in0.0 mm 0.00 in0.0 mm
01:00 AM 45.2°F7.3°C 21.1°F-6.1°C 38% 2.3 mph NNE3.7 kmh NNE 3.5 mph5.6 kmh 30.04 in1017.3 mb - 0.00 in0.0 mm 0.00 in0.0 mm
01:10 AM 44.9°F7.2°C 20.8°F-6.2°C 38% 1.2 mph N1.9 kmh N 10.4 mph16.7 kmh 30.04 in1017.3 mb - 0.00 in0.0 mm 0.00 in0.0 mm
01:20 AM 44.7°F7.1°C 20.6°F-6.3°C 38% 1.2 mph N1.9 kmh N 8.1 mph13.0 kmh 30.04 in1017.3 mb - 0.00 in0.0 mm 0.00 in0.0 mm
01:30 AM 44.5°F6.9°C 20.4°F-6.4°C 38% Calm Calm 3.5 mph5.6 kmh 30.04 in1017.3 mb - 0.00 in0.0 mm 0.00 in0.0 mm
01:40 AM 44.4°F6.9°C 20.3°F-6.5°C 38% Calm Calm -- 30.05 in1017.6 mb - 0.00 in0.0 mm 0.00 in0.0 mm
01:50 AM 44.0°F6.7°C 20.6°F-6.3°C 39% 1.2 mph N1.9 kmh N 3.5 mph5.6 kmh 30.05 in1017.6 mb - 0.00 in0.0 mm 0.00 in0.0 mm
02:00 AM 43.6°F6.4°C 20.2°F-6.6°C 39% 1.2 mph N1.9 kmh N 3.5 mph5.6 kmh 30.05 in1017.6 mb - 0.00 in0.0 mm 0.00 in0.0 mm
02:10 AM 43.4°F6.3°C 20.6°F-6.3°C 40% Calm Calm 3.5 mph5.6 kmh 30.05 in1017.6 mb - 0.00 in0.0 mm 0.00 in0.0 mm
02:20 AM 43.2°F6.2°C 20.5°F-6.4°C 40% 1.2 mph N1.9 kmh N 4.6 mph7.4 kmh 30.05 in1017.6 mb - 0.00 in0.0 mm 0.00 in0.0 mm
02:30 AM 42.9°F6.1°C 20.2°F-6.6°C 40% Calm Calm 2.3 mph3.7 kmh 30.05 in1017.6 mb - 0.00 in0.0 mm 0.00 in0.0 mm
02:40 AM 42.7°F5.9°C 20.0°F-6.7°C 40% 1.2 mph N1.9 kmh N 4.6 mph7.4 kmh 30.05 in1017.6 mb - 0.00 in0.0 mm 0.00 in0.0 mm
02:50 AM 42.5°F5.8°C 20.4°F-6.4°C 41% 2.3 mph N3.7 kmh N 9.2 mph14.8 kmh 30.06 in1017.9 mb - 0.00 in0.0 mm 0.00 in0.0 mm
03:00 AM 42.4°F5.8°C 20.3°F-6.5°C 41% 1.2 mph N1.9 kmh N 3.5 mph5.6 kmh 30.06 in1017.9 mb - 0.00 in0.0 mm 0.00 in0.0 mm
03:10 AM 42.3°F5.7°C 20.2°F-6.6°C 41% Calm Calm 2.3 mph3.7 kmh 30.07 in1018.3 mb - 0.00 in0.0 mm 0.00 in0.0 mm
03:20 AM 42.0°F5.6°C 20.6°F-6.3°C 42% 1.2 mph N1.9 kmh N 1.2 mph1.9 kmh 30.07 in1018.3 mb - 0.00 in0.0 mm 0.00 in0.0 mm
03:30 AM 41.8°F5.4°C 20.4°F-6.4°C 42% Calm Calm 1.2 mph1.9 kmh 30.07 in1018.3 mb - 0.00 in0.0 mm 0.00 in0.0 mm
03:40 AM 41.4°F5.2°C 20.0°F-6.7°C 42% 1.2 mph NNE1.9 kmh NNE 3.5 mph5.6 kmh 30.07 in1018.3 mb - 0.00 in0.0 mm 0.00 in0.0 mm
03:50 AM 41.2°F5.1°C 19.8°F-6.8°C 42% 2.3 mph N3.7 kmh N 4.6 mph7.4 kmh 30.07 in1018.3 mb - 0.00 in0.0 mm 0.00 in0.0 mm
04:00 AM 41.0°F5.0°C 20.2°F-6.6°C 43% 1.2 mph N1.9 kmh N 3.5 mph5.6 kmh 30.07 in1018.3 mb - 0.00 in0.0 mm 0.00 in0.0 mm
04:10 AM 40.7°F4.8°C 19.9°F-6.7°C 43% 1.2 mph N1.9 kmh N 4.6 mph7.4 kmh 30.08 in1018.6 mb - 0.00 in0.0 mm 0.00 in0.0 mm
04:20 AM 40.4°F4.7°C 19.6°F-6.9°C 43% 1.2 mph N1.9 kmh N 3.5 mph5.6 kmh 30.08 in1018.6 mb - 0.00 in0.0 mm 0.00 in0.0 mm
04:30 AM 40.2°F4.6°C 20.0°F-6.7°C 44% Calm Calm 1.2 mph1.9 kmh 30.08 in1018.6 mb - 0.00 in0.0 mm 0.00 in0.0 mm
04:40 AM 39.8°F4.3°C 19.7°F-6.8°C 44% Calm Calm -- 30.08 in1018.6 mb - 0.00 in0.0 mm 0.00 in0.0 mm
04:50 AM 39.7°F4.3°C 20.1°F-6.6°C 45% Calm Calm 3.5 mph5.6 kmh 30.09 in1019.0 mb - 0.00 in0.0 mm 0.00 in0.0 mm
05:00 AM 39.4°F4.1°C 19.8°F-6.8°C 45% 1.2 mph N1.9 kmh N 3.5 mph5.6 kmh 30.09 in1019.0 mb - 0.00 in0.0 mm 0.00 in0.0 mm
05:10 AM 39.2°F4.0°C 19.6°F-6.9°C 45% 1.2 mph N1.9 kmh N 2.3 mph3.7 kmh 30.09 in1019.0 mb - 0.00 in0.0 mm 0.00 in0.0 mm
05:20 AM 38.9°F3.8°C 19.3°F-7.1°C 45% Calm Calm -- 30.10 in1019.3 mb - 0.00 in0.0 mm 0.00 in0.0 mm
05:30 AM 38.5°F3.6°C 19.5°F-6.9°C 46% Calm Calm 2.3 mph3.7 kmh 30.10 in1019.3 mb - 0.00 in0.0 mm 0.00 in0.0 mm
05:40 AM 38.2°F3.4°C 19.2°F-7.1°C 46% Calm Calm 1.2 mph1.9 kmh 30.11 in1019.6 mb - 0.00 in0.0 mm 0.00 in0.0 mm
05:50 AM 37.8°F3.2°C 19.4°F-7.0°C 47% Calm Calm -- 30.11 in1019.6 mb - 0.00 in0.0 mm 0.00 in0.0 mm
06:00 AM 37.4°F3.0°C 19.0°F-7.2°C 47% Calm Calm 2.3 mph3.7 kmh 30.11 in1019.6 mb - 0.00 in0.0 mm 0.00 in0.0 mm
06:10 AM 37.1°F2.8°C 19.2°F-7.1°C 48% 1.2 mph N1.9 kmh N 1.2 mph1.9 kmh 30.11 in1019.6 mb - 0.00 in0.0 mm 0.00 in0.0 mm
06:20 AM 36.9°F2.7°C 19.0°F-7.2°C 48% 1.2 mph N1.9 kmh N 3.5 mph5.6 kmh 30.11 in1019.6 mb - 0.00 in0.0 mm 0.00 in0.0 mm
06:30 AM 36.6°F2.6°C 19.2°F-7.1°C 49% 1.2 mph N1.9 kmh N 6.9 mph11.1 kmh 30.12 in1020.0 mb - 0.00 in0.0 mm 0.00 in0.0 mm
06:40 AM 36.5°F2.5°C 19.1°F-7.2°C 49% Calm Calm 3.5 mph5.6 kmh 30.12 in1020.0 mb - 0.00 in0.0 mm 0.00 in0.0 mm
06:50 AM 36.3°F2.4°C 18.9°F-7.3°C 49% Calm Calm 3.5 mph5.6 kmh 30.12 in1020.0 mb - 0.00 in0.0 mm 0.00 in0.0 mm
07:00 AM 35.8°F2.1°C 19.0°F-7.2°C 50% 1.2 mph N1.9 kmh N 4.6 mph7.4 kmh 30.13 in1020.3 mb - 0.00 in0.0 mm 0.00 in0.0 mm
07:10 AM 35.4°F1.9°C 18.6°F-7.4°C 50% 1.2 mph N1.9 kmh N 3.5 mph5.6 kmh 30.13 in1020.3 mb - 0.00 in0.0 mm 0.00 in0.0 mm
07:20 AM 35.1°F1.7°C 18.8°F-7.3°C 51% 2.3 mph N3.7 kmh N 6.9 mph11.1 kmh 30.14 in1020.7 mb - 0.00 in0.0 mm 0.00 in0.0 mm
07:30 AM 34.7°F1.5°C 18.4°F-7.6°C 51% 1.2 mph N1.9 kmh N 3.5 mph5.6 kmh 30.14 in1020.7 mb - 0.00 in0.0 mm 0.00 in0.0 mm
07:40 AM 34.6°F1.4°C 18.7°F-7.4°C 52% 1.2 mph 1.9 kmh 3.5 mph5.6 kmh 30.15 in1021.0 mb - 0.00 in0.0 mm 0.00 in0.0 mm
07:50 AM 34.3°F1.3°C 18.5°F-7.5°C 52% 1.2 mph 1.9 kmh 3.5 mph5.6 kmh 30.15 in1021.0 mb - 0.00 in0.0 mm 0.00 in0.0 mm
08:00 AM 34.1°F1.2°C 18.3°F-7.6°C 52% 1.2 mph N1.9 kmh N 3.5 mph5.6 kmh 30.15 in1021.0 mb - 0.00 in0.0 mm 0.00 in0.0 mm
08:10 AM 33.9°F1.1°C 18.6°F-7.4°C 53% 2.3 mph 3.7 kmh 6.9 mph11.1 kmh 30.16 in1021.3 mb - 0.00 in0.0 mm 0.00 in0.0 mm
08:20 AM 33.9°F1.1°C 18.5°F-7.5°C 53% 2.3 mph N3.7 kmh N 5.8 mph9.3 kmh 30.16 in1021.3 mb - 0.00 in0.0 mm 0.00 in0.0 mm
08:30 AM 34.2°F1.2°C 18.8°F-7.3°C 53% 3.5 mph N5.6 kmh N 6.9 mph11.1 kmh 30.17 in1021.7 mb - 0.00 in0.0 mm 0.00 in0.0 mm
08:40 AM 34.8°F1.6°C 19.0°F-7.2°C 52% 1.2 mph N1.9 kmh N 3.5 mph5.6 kmh 30.17 in1021.7 mb - 0.00 in0.0 mm 0.00 in0.0 mm
08:50 AM 36.3°F2.4°C 19.4°F-7.0°C 50% 2.3 mph N3.7 kmh N 3.5 mph5.6 kmh 30.18 in1022.0 mb - 0.00 in0.0 mm 0.00 in0.0 mm
09:00 AM 36.8°F2.7°C 19.4°F-7.0°C 49% 1.2 mph N1.9 kmh N 2.3 mph3.7 kmh 30.18 in1022.0 mb - 0.00 in0.0 mm 0.00 in0.0 mm
09:10 AM 37.1°F2.8°C 19.2°F-7.1°C 48% 1.2 mph N1.9 kmh N 1.2 mph1.9 kmh 30.19 in1022.4 mb - 0.00 in0.0 mm 0.00 in0.0 mm
09:20 AM 37.9°F3.3°C 19.9°F-6.7°C 48% 2.3 mph N3.7 kmh N 6.9 mph11.1 kmh 30.19 in1022.4 mb - 0.00 in0.0 mm 0.00 in0.0 mm
09:30 AM 38.6°F3.7°C 19.6°F-6.9°C 46% 1.2 mph N1.9 kmh N 2.3 mph3.7 kmh 30.20 in1022.7 mb - 0.00 in0.0 mm 0.00 in0.0 mm
09:40 AM 38.5°F3.6°C 19.5°F-6.9°C 46% 1.2 mph N1.9 kmh N 2.3 mph3.7 kmh 30.20 in1022.7 mb - 0.00 in0.0 mm 0.00 in0.0 mm
09:50 AM 39.1°F3.9°C 20.0°F-6.7°C 46% 1.2 mph N1.9 kmh N 1.2 mph1.9 kmh 30.20 in1022.7 mb - 0.00 in0.0 mm 0.00 in0.0 mm
10:00 AM 40.1°F4.5°C 20.4°F-6.4°C 45% 2.3 mph N3.7 kmh N 3.5 mph5.6 kmh 30.20 in1022.7 mb - 0.00 in0.0 mm 0.00 in0.0 mm
10:10 AM 40.8°F4.9°C 20.6°F-6.3°C 44% Calm Calm 3.5 mph5.6 kmh 30.21 in1023.0 mb - 0.00 in0.0 mm 0.00 in0.0 mm
10:20 AM 41.9°F5.5°C 21.0°F-6.1°C 43% Calm Calm 2.3 mph3.7 kmh 30.22 in1023.4 mb - 0.00 in0.0 mm 0.00 in0.0 mm
10:30 AM 43.4°F6.3°C 21.3°F-5.9°C 41% 1.2 mph 1.9 kmh 5.8 mph9.3 kmh 30.22 in1023.4 mb - 0.00 in0.0 mm 0.00 in0.0 mm
10:40 AM 44.7°F7.1°C 21.3°F-5.9°C 39% Calm Calm -- 30.22 in1023.4 mb - 0.00 in0.0 mm 0.00 in0.0 mm
10:50 AM 45.9°F7.7°C 21.7°F-5.7°C 38% Calm Calm -- 30.22 in1023.4 mb - 0.00 in0.0 mm 0.00 in0.0 mm
11:00 AM 46.7°F8.2°C 21.8°F-5.7°C 37% Calm Calm -- 30.22 in1023.4 mb - 0.00 in0.0 mm 0.00 in0.0 mm
11:10 AM 47.3°F8.5°C 22.3°F-5.4°C 37% Calm Calm -- 30.22 in1023.4 mb - 0.00 in0.0 mm 0.00 in0.0 mm
11:20 AM 48.7°F9.3°C 22.2°F-5.4°C 35% Calm Calm -- 30.23 in1023.7 mb - 0.00 in0.0 mm 0.00 in0.0 mm
11:30 AM 50.5°F10.3°C 23.1°F-4.9°C 34% Calm Calm -- 30.22 in1023.4 mb - 0.00 in0.0 mm 0.00 in0.0 mm
11:40 AM 51.7°F10.9°C 22.7°F-5.2°C 32% Calm Calm -- 30.22 in1023.4 mb - 0.00 in0.0 mm 0.00 in0.0 mm
11:50 AM 52.3°F11.3°C 22.6°F-5.2°C 31% Calm Calm -- 30.22 in1023.4 mb - 0.00 in0.0 mm 0.00 in0.0 mm
12:00 PM 53.8°F12.1°C 23.1°F-4.9°C 30% Calm Calm -- 30.22 in1023.4 mb - 0.00 in0.0 mm 0.00 in0.0 mm
12:10 PM 54.0°F12.2°C 22.4°F-5.3°C 29% Calm Calm -- 30.22 in1023.4 mb - 0.00 in0.0 mm 0.00 in0.0 mm
12:20 PM 53.9°F12.2°C 23.1°F-4.9°C 30% Calm Calm 4.6 mph7.4 kmh 30.22 in1023.4 mb - 0.00 in0.0 mm 0.00 in0.0 mm
12:30 PM 54.5°F12.5°C 22.8°F-5.1°C 29% 1.2 mph SE1.9 kmh SE 4.6 mph7.4 kmh 30.22 in1023.4 mb - 0.00 in0.0 mm 0.00 in0.0 mm
12:40 PM 54.8°F12.7°C 23.1°F-4.9°C 29% Calm Calm 1.2 mph1.9 kmh 30.22 in1023.4 mb - 0.00 in0.0 mm 0.00 in0.0 mm
12:50 PM 55.3°F12.9°C 23.5°F-4.7°C 29% 1.2 mph SSE1.9 kmh SSE 3.5 mph5.6 kmh 30.21 in1023.0 mb - 0.00 in0.0 mm 0.00 in0.0 mm
01:00 PM 55.9°F13.3°C 23.2°F-4.9°C 28% Calm Calm -- 30.20 in1022.7 mb - 0.00 in0.0 mm 0.00 in0.0 mm
01:10 PM 57.2°F14.0°C 24.4°F-4.2°C 28% 1.2 mph SE1.9 kmh SE 3.5 mph5.6 kmh 30.20 in1022.7 mb - 0.00 in0.0 mm 0.00 in0.0 mm
01:20 PM 58.2°F14.6°C 24.3°F-4.3°C 27% Calm Calm -- 30.20 in1022.7 mb - 0.00 in0.0 mm 0.00 in0.0 mm
01:30 PM 58.2°F14.6°C 23.4°F-4.8°C 26% Calm Calm 3.5 mph5.6 kmh 30.20 in1022.7 mb - 0.00 in0.0 mm 0.00 in0.0 mm
01:40 PM 59.2°F15.1°C 24.3°F-4.3°C 26% 2.3 mph SE3.7 kmh SE 4.6 mph7.4 kmh 30.19 in1022.4 mb - 0.00 in0.0 mm 0.00 in0.0 mm
01:50 PM 58.7°F14.8°C 22.9°F-5.1°C 25% Calm Calm 3.5 mph5.6 kmh 30.19 in1022.4 mb - 0.00 in0.0 mm 0.00 in0.0 mm
02:00 PM 59.0°F15.0°C 23.2°F-4.9°C 25% 2.3 mph S3.7 kmh S 4.6 mph7.4 kmh 30.18 in1022.0 mb - 0.00 in0.0 mm 0.00 in0.0 mm
02:10 PM 59.0°F15.0°C 22.2°F-5.4°C 24% 1.2 mph SE1.9 kmh SE 3.5 mph5.6 kmh 30.18 in1022.0 mb - 0.00 in0.0 mm 0.00 in0.0 mm
02:20 PM 59.6°F15.3°C 23.7°F-4.6°C 25% 2.3 mph SE3.7 kmh SE 5.8 mph9.3 kmh 30.17 in1021.7 mb - 0.00 in0.0 mm 0.00 in0.0 mm
02:30 PM 58.7°F14.8°C 22.9°F-5.1°C 25% 1.2 mph SE1.9 kmh SE 2.3 mph3.7 kmh 30.17 in1021.7 mb - 0.00 in0.0 mm 0.00 in0.0 mm
02:40 PM 60.3°F15.7°C 23.3°F-4.8°C 24% Calm Calm 3.5 mph5.6 kmh 30.16 in1021.3 mb - 0.00 in0.0 mm 0.00 in0.0 mm
02:50 PM 59.6°F15.3°C 21.7°F-5.7°C 23% 2.3 mph SE3.7 kmh SE 6.9 mph11.1 kmh 30.16 in1021.3 mb - 0.00 in0.0 mm 0.00 in0.0 mm
03:00 PM 60.0°F15.6°C 22.0°F-5.6°C 23% 4.6 mph SSE7.4 kmh SSE 8.1 mph13.0 kmh 30.16 in1021.3 mb - 0.00 in0.0 mm 0.00 in0.0 mm
03:10 PM 60.6°F15.9°C 21.5°F-5.8°C 22% 1.2 mph S1.9 kmh S 6.9 mph11.1 kmh 30.16 in1021.3 mb - 0.00 in0.0 mm 0.00 in0.0 mm
03:20 PM 61.0°F16.1°C 21.8°F-5.7°C 22% 3.5 mph SE5.6 kmh SE 3.5 mph5.6 kmh 30.16 in1021.3 mb - 0.00 in0.0 mm 0.00 in0.0 mm
03:30 PM 60.9°F16.1°C 20.7°F-6.3°C 21% Calm Calm -- 30.16 in1021.3 mb - 0.00 in0.0 mm 0.00 in0.0 mm
03:40 PM 62.3°F16.8°C 21.9°F-5.6°C 21% Calm Calm -- 30.16 in1021.3 mb - 0.00 in0.0 mm 0.00 in0.0 mm
03:50 PM 61.4°F16.3°C 19.9°F-6.7°C 20% 4.6 mph SW7.4 kmh SW 6.9 mph11.1 kmh 30.16 in1021.3 mb - 0.00 in0.0 mm 0.00 in0.0 mm
04:00 PM 61.8°F16.6°C 20.3°F-6.5°C 20% 2.3 mph SW3.7 kmh SW 3.5 mph5.6 kmh 30.16 in1021.3 mb - 0.00 in0.0 mm 0.00 in0.0 mm
04:10 PM 62.3°F16.8°C 19.5°F-6.9°C 19% 4.6 mph SW7.4 kmh SW 6.9 mph11.1 kmh 30.16 in1021.3 mb - 0.00 in0.0 mm 0.00 in0.0 mm
04:20 PM 62.2°F16.8°C 20.6°F-6.3°C 20% 3.5 mph SW5.6 kmh SW 4.6 mph7.4 kmh 30.16 in1021.3 mb - 0.00 in0.0 mm 0.00 in0.0 mm
04:30 PM 61.9°F16.6°C 20.3°F-6.5°C 20% 1.2 mph SW1.9 kmh SW 3.5 mph5.6 kmh 30.15 in1021.0 mb - 0.00 in0.0 mm 0.00 in0.0 mm
04:40 PM 62.3°F16.8°C 20.7°F-6.3°C 20% 4.6 mph S7.4 kmh S 6.9 mph11.1 kmh 30.15 in1021.0 mb - 0.00 in0.0 mm 0.00 in0.0 mm
04:50 PM 62.0°F16.7°C 20.4°F-6.4°C 20% 3.5 mph SSW5.6 kmh SSW 6.9 mph11.1 kmh 30.16 in1021.3 mb - 0.00 in0.0 mm 0.00 in0.0 mm
05:00 PM 62.2°F16.8°C 20.6°F-6.3°C 20% Calm Calm -- 30.16 in1021.3 mb - 0.00 in0.0 mm 0.00 in0.0 mm
05:10 PM 62.4°F16.9°C 20.8°F-6.2°C 20% 1.2 mph SE1.9 kmh SE 1.2 mph1.9 kmh 30.16 in1021.3 mb - 0.00 in0.0 mm 0.00 in0.0 mm
05:20 PM 62.2°F16.8°C 20.6°F-6.3°C 20% 1.2 mph SE1.9 kmh SE 3.5 mph5.6 kmh 30.16 in1021.3 mb - 0.00 in0.0 mm 0.00 in0.0 mm
05:30 PM 61.1°F16.2°C 19.7°F-6.8°C 20% Calm Calm -- 30.16 in1021.3 mb - 0.00 in0.0 mm 0.00 in0.0 mm
05:40 PM 60.7°F15.9°C 19.3°F-7.1°C 20% Calm Calm 3.5 mph5.6 kmh 30.16 in1021.3 mb - 0.00 in0.0 mm 0.00 in0.0 mm
05:50 PM 60.5°F15.8°C 19.2°F-7.1°C 20% 2.3 mph SSE3.7 kmh SSE 4.6 mph7.4 kmh 30.17 in1021.7 mb - 0.00 in0.0 mm 0.00 in0.0 mm
06:00 PM 60.4°F15.8°C 19.1°F-7.2°C 20% Calm Calm 2.3 mph3.7 kmh 30.17 in1021.7 mb - 0.00 in0.0 mm 0.00 in0.0 mm
06:10 PM 60.0°F15.6°C 18.8°F-7.3°C 20% Calm Calm -- 30.17 in1021.7 mb - 0.00 in0.0 mm 0.00 in0.0 mm
06:20 PM 59.8°F15.4°C 18.6°F-7.4°C 20% Calm Calm -- 30.17 in1021.7 mb - 0.00 in0.0 mm 0.00 in0.0 mm
06:30 PM 59.3°F15.2°C 18.2°F-7.7°C 20% Calm Calm -- 30.17 in1021.7 mb - 0.00 in0.0 mm 0.00 in0.0 mm
06:40 PM 58.8°F14.9°C 18.9°F-7.3°C 21% Calm Calm -- 30.17 in1021.7 mb - 0.00 in0.0 mm 0.00 in0.0 mm
06:50 PM 58.4°F14.7°C 18.6°F-7.4°C 21% Calm Calm -- 30.17 in1021.7 mb - 0.00 in0.0 mm 0.00 in0.0 mm
07:00 PM 58.0°F14.4°C 18.2°F-7.7°C 21% Calm Calm -- 30.17 in1021.7 mb - 0.00 in0.0 mm 0.00 in0.0 mm
07:10 PM 57.7°F14.3°C 19.1°F-7.2°C 22% Calm Calm -- 30.17 in1021.7 mb - 0.00 in0.0 mm 0.00 in0.0 mm
07:20 PM 57.3°F14.1°C 18.7°F-7.4°C 22% Calm Calm -- 30.17 in1021.7 mb - 0.00 in0.0 mm 0.00 in0.0 mm
07:30 PM 56.4°F13.6°C 18.0°F-7.8°C 22% Calm Calm -- 30.17 in1021.7 mb - 0.00 in0.0 mm 0.00 in0.0 mm
07:40 PM 55.4°F13.0°C 18.1°F-7.7°C 23% Calm Calm -- 30.17 in1021.7 mb - 0.00 in0.0 mm 0.00 in0.0 mm
07:50 PM 54.3°F12.4°C 18.2°F-7.7°C 24% Calm Calm -- 30.17 in1021.7 mb - 0.00 in0.0 mm 0.00 in0.0 mm
08:00 PM 53.4°F11.9°C 18.4°F-7.6°C 25% Calm Calm -- 30.18 in1022.0 mb - 0.00 in0.0 mm 0.00 in0.0 mm
08:10 PM 52.6°F11.4°C 18.7°F-7.4°C 26% Calm Calm -- 30.18 in1022.0 mb - 0.00 in0.0 mm 0.00 in0.0 mm
08:20 PM 51.7°F10.9°C 18.8°F-7.3°C 27% Calm Calm -- 30.18 in1022.0 mb - 0.00 in0.0 mm 0.00 in0.0 mm
08:30 PM 50.9°F10.5°C 18.1°F-7.7°C 27% Calm Calm -- 30.18 in1022.0 mb - 0.00 in0.0 mm 0.00 in0.0 mm
08:40 PM 50.1°F10.1°C 17.4°F-8.1°C 27% Calm Calm -- 30.18 in1022.0 mb - 0.00 in0.0 mm 0.00 in0.0 mm
08:50 PM 49.3°F9.6°C 17.5°F-8.1°C 28% Calm Calm -- 30.19 in1022.4 mb - 0.00 in0.0 mm 0.00 in0.0 mm
09:00 PM 48.5°F9.2°C 16.9°F-8.4°C 28% Calm Calm -- 30.19 in1022.4 mb - 0.00 in0.0 mm 0.00 in0.0 mm
09:10 PM 47.9°F8.8°C 17.2°F-8.2°C 29% Calm Calm -- 30.19 in1022.4 mb - 0.00 in0.0 mm 0.00 in0.0 mm
09:20 PM 47.5°F8.6°C 16.8°F-8.4°C 29% Calm Calm -- 30.19 in1022.4 mb - 0.00 in0.0 mm 0.00 in0.0 mm
09:30 PM 46.9°F8.3°C 16.2°F-8.8°C 29% Calm Calm -- 30.19 in1022.4 mb - 0.00 in0.0 mm 0.00 in0.0 mm
09:40 PM 46.3°F7.9°C 16.5°F-8.6°C 30% Calm Calm -- 30.20 in1022.7 mb - 0.00 in0.0 mm 0.00 in0.0 mm
09:50 PM 46.1°F7.8°C 16.3°F-8.7°C 30% Calm Calm -- 30.20 in1022.7 mb - 0.00 in0.0 mm 0.00 in0.0 mm
10:00 PM 45.6°F7.6°C 16.7°F-8.5°C 31% Calm Calm -- 30.20 in1022.7 mb - 0.00 in0.0 mm 0.00 in0.0 mm
10:10 PM 45.2°F7.3°C 16.3°F-8.7°C 31% Calm Calm -- 30.20 in1022.7 mb - 0.00 in0.0 mm 0.00 in0.0 mm
10:20 PM 44.9°F7.2°C 16.8°F-8.4°C 32% Calm Calm -- 30.20 in1022.7 mb - 0.00 in0.0 mm 0.00 in0.0 mm
10:30 PM 44.8°F7.1°C 16.7°F-8.5°C 32% Calm Calm -- 30.20 in1022.7 mb - 0.00 in0.0 mm 0.00 in0.0 mm
10:40 PM 44.9°F7.2°C 16.8°F-8.4°C 32% Calm Calm -- 30.20 in1022.7 mb - 0.00 in0.0 mm 0.00 in0.0 mm
10:50 PM 44.7°F7.1°C 16.6°F-8.6°C 32% Calm Calm -- 30.20 in1022.7 mb - 0.00 in0.0 mm 0.00 in0.0 mm
11:00 PM 44.4°F6.9°C 16.3°F-8.7°C 32% Calm Calm -- 30.20 in1022.7 mb - 0.00 in0.0 mm 0.00 in0.0 mm
11:10 PM 44.2°F6.8°C 16.2°F-8.8°C 32% Calm Calm -- 30.20 in1022.7 mb - 0.00 in0.0 mm 0.00 in0.0 mm
11:20 PM 44.0°F6.7°C 16.7°F-8.5°C 33% Calm Calm -- 30.20 in1022.7 mb - 0.00 in0.0 mm 0.00 in0.0 mm
11:30 PM 43.8°F6.6°C 16.5°F-8.6°C 33% Calm Calm -- 30.20 in1022.7 mb - 0.00 in0.0 mm 0.00 in0.0 mm
11:40 PM 43.6°F6.4°C 16.3°F-8.7°C 33% Calm Calm -- 30.20 in1022.7 mb - 0.00 in0.0 mm 0.00 in0.0 mm
11:50 PM 43.3°F6.3°C 16.8°F-8.4°C 34% Calm Calm -- 30.21 in1023.0 mb - 0.00 in0.0 mm 0.00 in0.0 mm